Aérodrome :







RETROUVEZ-NOUS SUR...

 
LOGIN :

S'inscrire | Disclaimer

   EN    FR    IT 

 









Légende :    VFR   VFR Marginal   IFR   IFR Intensif   IFR Très Intensif
Visi : 
Plafond : 
>= 8 km
>= 3000ft
5 à 8 km
1000 à 3000 ft
1500m à 5 km
500 à 1000 ft
800 à 1500m
200 à 500 ft
< 800m
< 200 ft
Symboles :   Orages  Brouillard  Fortes neiges  Fortes précipitations  Vent > 20 kt






- Altitude de l'aérodrome : 83 ft


KBHB - Hancock County-Bar Harbor

DERNIER METAR :
  • 091756Z AUTO 13004KT 10SM CLR 22/19 A3002 RMK AO2 SLP167 T02220189 10222 20167 51003

METARs EXPIRÉS :
  • 091656Z AUTO 11006KT 10SM CLR 22/18 A3002 RMK AO2 SLP165 T02170183
  • 091556Z AUTO 12006KT 10SM CLR 21/19 A3001 RMK AO2 SLP165 T02110189

TAF KBHB
Valide du 09 à 18h jusqu'au 10 à 18h UTC


091738Z 0918/1018 15008KT P6SM SCT040
FM100200 20006KT P6SM BKN005
FM100600 20006KT 3/4SM BR OVC002
FM101300 20006KT 3SM BR OVC005
FM101500 20008KT P6SM SCT015
FIR KZBW / Amérique du Nord



MET'MAP, la Météo Aéronautique d'un coup d'oeil ! - Copyright ORBIFLY Décembre 2007 - Disclaimer

ORBIFLY MET'MAP TEAM :

Programmation & Développement : Alexandra Zaïnal
Sur une idée originale de : Baudouin d'Aumeries
Assistance à la programmation : Marc-Olivier Méhu
Soutien technique & logistique : Manuel Goepfert

Contact : metmap@orbifly.com




SOURCES & CREDITS :

   NOAA